Time;durP1;ratioP1;P1;durP2;ratioP2;P2;SDS_P1;SDS_P2;PMS_P1;PMS_P2;Temp;Humidity;BMP_temperature;BMP_pressure;BME280_temperature;BME280_humidity;BME280_pressure;Samples;Min_cycle;Max_cycle;Signal;HPM_P1;HPM_P2
2023/08/29 00:03:33;;;;;;;2.38;1.42;;;20.70;71.10;;;;;;10408630;28;20495;-57
2023/08/29 00:08:34;;;;;;;3.17;1.05;;;20.70;71.00;;;;;;10407913;28;20029;-57
2023/08/29 00:13:35;;;;;;;1.33;0.80;;;20.70;71.00;;;;;;10408496;28;20033;-57
2023/08/29 00:18:35;;;;;;;4.00;0.95;;;20.70;71.20;;;;;;10407901;28;20029;-57
2023/08/29 00:23:36;;;;;;;1.30;0.90;;;20.70;71.00;;;;;;10407925;28;20025;-57
2023/08/29 00:28:37;;;;;;;1.20;1.00;;;20.70;71.10;;;;;;10437005;28;20041;-58
2023/08/29 00:33:38;;;;;;;1.77;0.90;;;20.70;71.00;;;;;;10407929;28;20530;-57
2023/08/29 00:38:38;;;;;;;2.15;0.90;;;20.70;70.90;;;;;;10407412;28;20030;-57
2023/08/29 00:43:39;;;;;;;2.80;1.15;;;20.70;71.00;;;;;;10406615;28;20079;-58
2023/08/29 00:48:41;;;;;;;1.20;0.65;;;20.70;71.70;;;;;;10407206;28;20565;-57
2023/08/29 00:53:42;;;;;;;1.33;0.98;;;20.80;74.80;;;;;;10427625;28;20032;-57
2023/08/29 00:58:44;;;;;;;3.03;0.95;;;20.80;74.20;;;;;;10416740;28;20064;-57
2023/08/29 01:03:45;;;;;;;1.50;1.10;;;20.80;73.90;;;;;;10414818;28;20025;-57
2023/08/29 01:08:46;;;;;;;1.48;0.73;;;20.80;73.40;;;;;;10414062;28;20441;-57
2023/08/29 01:14:23;;;;;;;1.70;0.88;;;20.80;73.50;;;;;;10413941;28;20656;-57
2023/08/29 01:19:24;;;;;;;3.15;1.48;;;20.70;73.30;;;;;;10283466;28;20502;-57
2023/08/29 01:24:49;;;;;;;2.00;0.90;;;20.70;73.20;;;;;;10232050;28;20687;-57
2023/08/29 01:29:50;;;;;;;1.15;0.93;;;20.70;73.10;;;;;;10243237;28;20055;-57
2023/08/29 01:34:52;;;;;;;1.15;0.88;;;20.70;72.90;;;;;;10230236;28;20065;-57
2023/08/29 01:39:52;;;;;;;1.00;0.70;;;20.70;72.80;;;;;;10229458;28;20502;-57
2023/08/29 01:44:53;;;;;;;1.60;0.70;;;20.70;72.70;;;;;;10246257;29;20090;-57
2023/08/29 01:49:54;;;;;;;1.42;0.73;;;20.70;72.60;;;;;;10245199;29;20058;-57
2023/08/29 01:54:54;;;;;;;1.20;0.70;;;20.70;72.60;;;;;;10337785;28;20091;-56
2023/08/29 01:59:56;;;;;;;3.03;1.10;;;20.60;72.40;;;;;;10452251;28;20028;-57
2023/08/29 02:04:57;;;;;;;1.73;0.90;;;20.60;72.30;;;;;;10451314;28;20048;-57
2023/08/29 02:09:58;;;;;;;1.13;0.77;;;20.60;72.20;;;;;;10452803;28;20059;-57
2023/08/29 02:14:59;;;;;;;1.45;0.90;;;20.60;72.10;;;;;;10410041;28;20047;-57
2023/08/29 02:20:00;;;;;;;1.30;0.85;;;20.60;72.00;;;;;;10411333;28;20033;-57
2023/08/29 02:25:04;;;;;;;1.27;0.80;;;20.60;71.80;;;;;;10415441;28;20041;-57
2023/08/29 02:30:06;;;;;;;1.45;1.00;;;20.60;71.70;;;;;;10434916;28;20037;-57
2023/08/29 02:35:08;;;;;;;1.08;0.60;;;20.60;71.70;;;;;;10411058;28;20115;-57
2023/08/29 02:40:09;;;;;;;1.40;1.10;;;20.60;71.70;;;;;;10410777;28;20120;-57
2023/08/29 02:45:11;;;;;;;3.40;1.10;;;20.60;71.10;;;;;;10411130;28;20369;-57
2023/08/29 02:50:12;;;;;;;1.45;1.00;;;20.60;71.20;;;;;;10410467;28;20068;-57
2023/08/29 02:55:12;;;;;;;1.65;0.80;;;20.50;71.10;;;;;;10410395;28;20026;-57
2023/08/29 03:00:14;;;;;;;4.07;1.08;;;20.50;71.20;;;;;;10425339;28;20022;-56
2023/08/29 03:05:15;;;;;;;1.45;0.90;;;20.50;71.00;;;;;;10423114;28;20071;-57
2023/08/29 03:10:17;;;;;;;2.15;0.93;;;20.50;70.90;;;;;;10409297;28;20427;-57
2023/08/29 03:15:18;;;;;;;1.05;0.60;;;20.50;71.00;;;;;;10408601;28;20041;-57
2023/08/29 03:20:19;;;;;;;2.35;1.00;;;20.50;70.50;;;;;;10408502;28;20021;-57
2023/08/29 03:25:21;;;;;;;1.30;0.80;;;20.50;70.40;;;;;;10431243;28;20079;-57
2023/08/29 03:30:25;;;;;;;0.95;0.70;;;20.50;70.50;;;;;;10431667;28;20029;-57
2023/08/29 03:35:25;;;;;;;1.25;0.60;;;20.40;70.20;;;;;;10439950;28;20450;-56
2023/08/29 03:40:26;;;;;;;3.03;0.80;;;20.40;70.00;;;;;;10421786;28;20568;-57
2023/08/29 03:45:27;;;;;;;1.63;1.02;;;20.50;70.90;;;;;;10419523;28;20032;-57
2023/08/29 03:50:28;;;;;;;1.17;0.80;;;20.50;70.70;;;;;;10422572;28;20037;-57
2023/08/29 03:55:28;;;;;;;1.05;0.80;;;20.50;70.70;;;;;;10421614;28;20473;-57
2023/08/29 04:00:29;;;;;;;1.60;0.70;;;20.60;70.40;;;;;;10419007;28;20025;-58
2023/08/29 04:05:30;;;;;;;1.70;0.90;;;20.60;70.60;;;;;;10420735;28;20048;-58
2023/08/29 04:10:38;;;;;;;2.42;0.73;;;20.60;70.50;;;;;;10433995;28;20094;-58
2023/08/29 04:15:39;;;;;;;1.30;0.70;;;20.50;70.50;;;;;;10444090;28;20082;-57
2023/08/29 04:20:40;;;;;;;1.98;0.93;;;20.50;70.40;;;;;;10446216;28;20072;-57
2023/08/29 04:25:40;;;;;;;2.10;1.00;;;20.50;70.50;;;;;;10426269;28;20718;-57
2023/08/29 04:30:41;;;;;;;1.65;0.82;;;20.40;69.90;;;;;;10417318;28;20044;-57
2023/08/29 04:35:42;;;;;;;0.65;0.50;;;20.40;69.70;;;;;;10412194;28;20416;-57
2023/08/29 04:40:43;;;;;;;1.60;1.00;;;20.40;69.80;;;;;;10422423;28;20037;-56
2023/08/29 04:45:44;;;;;;;1.38;0.90;;;20.40;69.60;;;;;;10413872;28;20036;-56
2023/08/29 04:50:45;;;;;;;2.65;1.40;;;20.30;69.50;;;;;;10414366;28;20030;-57
2023/08/29 04:55:46;;;;;;;2.40;1.08;;;20.30;69.30;;;;;;10414438;28;20029;-58
2023/08/29 05:00:50;;;;;;;1.38;0.73;;;20.30;69.20;;;;;;10413513;28;20025;-56
2023/08/29 05:05:52;;;;;;;4.18;1.05;;;20.30;68.80;;;;;;10413514;28;20100;-58
2023/08/29 05:10:53;;;;;;;9.15;1.35;;;20.40;69.50;;;;;;10412878;28;20033;-57
2023/08/29 05:15:53;;;;;;;10.10;1.40;;;20.50;69.80;;;;;;10412871;28;20067;-57
2023/08/29 05:20:55;;;;;;;6.43;1.33;;;20.50;69.60;;;;;;10412545;28;20056;-57
2023/08/29 05:25:56;;;;;;;48.05;7.38;;;20.50;70.00;;;;;;10424492;28;20060;-57
2023/08/29 05:30:57;;;;;;;12.82;2.75;;;20.50;69.70;;;;;;10430085;28;20029;-57
2023/08/29 05:35:58;;;;;;;13.82;2.67;;;20.50;70.00;;;;;;10411541;28;20409;-56
2023/08/29 05:40:58;;;;;;;27.45;3.35;;;20.50;69.80;;;;;;10411827;28;20067;-56
2023/08/29 05:46:00;;;;;;;12.82;2.72;;;20.60;69.80;;;;;;10412570;28;20025;-56
2023/08/29 05:51:01;;;;;;;10.82;2.80;;;20.60;70.10;;;;;;10411536;28;20061;-56
2023/08/29 05:56:01;;;;;;;17.17;2.10;;;20.50;70.20;;;;;;10411335;28;20040;-56
2023/08/29 06:01:06;;;;;;;16.30;2.22;;;20.50;70.60;;;;;;10418423;28;20162;-55
2023/08/29 06:06:07;;;;;;;12.80;3.13;;;20.50;70.50;;;;;;10416680;28;20369;-59
2023/08/29 06:11:08;;;;;;;18.73;3.50;;;20.40;69.60;;;;;;10410662;28;20040;-56
2023/08/29 06:16:08;;;;;;;9.82;2.50;;;20.40;69.40;;;;;;10410903;28;20102;-57
2023/08/29 06:21:09;;;;;;;17.58;2.40;;;20.30;69.80;;;;;;10410239;28;20044;-57
2023/08/29 06:26:10;;;;;;;14.75;3.00;;;20.40;70.30;;;;;;10424261;28;20029;-56
2023/08/29 06:31:11;;;;;;;11.90;2.47;;;20.30;69.40;;;;;;10425483;28;20032;-56
2023/08/29 06:36:11;;;;;;;10.73;2.75;;;20.30;69.20;;;;;;10423054;28;20037;-56
2023/08/29 06:41:12;;;;;;;10.52;3.63;;;20.30;69.20;;;;;;10409541;28;20024;-56
2023/08/29 06:46:14;;;;;;;6.20;1.60;;;20.30;69.50;;;;;;10426700;28;20033;-57
2023/08/29 06:51:14;;;;;;;7.55;1.70;;;20.30;69.20;;;;;;10432554;28;20081;-56
2023/08/29 06:56:15;;;;;;;5.85;1.95;;;20.30;69.20;;;;;;10418788;28;20741;-56
2023/08/29 07:01:16;;;;;;;5.88;1.60;;;20.30;69.80;;;;;;10420544;28;20033;-56
2023/08/29 07:06:16;;;;;;;7.60;1.52;;;20.30;69.70;;;;;;10412993;28;20029;-56
2023/08/29 07:11:17;;;;;;;3.70;1.45;;;20.30;69.60;;;;;;10412080;28;20045;-57
2023/08/29 07:16:18;;;;;;;5.32;1.33;;;20.30;69.70;;;;;;10408454;28;20053;-57
2023/08/29 07:21:19;;;;;;;6.88;1.80;;;20.30;69.70;;;;;;10407914;28;20029;-56
2023/08/29 07:26:21;;;;;;;7.82;1.45;;;20.30;69.70;;;;;;10422930;28;20136;-56
2023/08/29 07:31:22;;;;;;;6.38;1.95;;;20.30;69.80;;;;;;10412377;28;20047;-56
2023/08/29 07:36:22;;;;;;;5.80;1.88;;;20.30;69.80;;;;;;10408108;28;20118;-56
2023/08/29 07:41:23;;;;;;;4.78;1.52;;;20.30;69.90;;;;;;10407700;28;20025;-57
2023/08/29 07:46:24;;;;;;;4.65;1.50;;;20.30;69.90;;;;;;10406715;28;20034;-57
2023/08/29 07:51:25;;;;;;;5.18;1.60;;;20.30;70.00;;;;;;10407598;28;20105;-56
2023/08/29 07:56:25;;;;;;;3.05;1.30;;;20.30;70.10;;;;;;10410132;28;20640;-56
2023/08/29 08:01:26;;;;;;;4.22;1.40;;;20.30;70.10;;;;;;10418940;28;20037;-56
2023/08/29 08:06:27;;;;;;;6.13;1.33;;;20.30;69.90;;;;;;10424804;28;20037;-56
2023/08/29 08:11:28;;;;;;;4.03;1.20;;;20.30;70.00;;;;;;10415091;28;20040;-57
2023/08/29 08:16:28;;;;;;;2.85;1.10;;;20.30;70.00;;;;;;10416714;28;20539;-56
2023/08/29 08:21:29;;;;;;;3.40;1.30;;;20.30;69.90;;;;;;10421127;28;20033;-56
2023/08/29 08:26:30;;;;;;;5.35;1.10;;;20.30;69.90;;;;;;10418010;28;20029;-57
2023/08/29 08:31:31;;;;;;;3.45;1.40;;;20.30;69.90;;;;;;10432013;28;20033;-56
2023/08/29 08:36:32;;;;;;;6.80;1.58;;;20.30;69.80;;;;;;10414879;28;20025;-55
2023/08/29 08:41:33;;;;;;;3.50;1.00;;;20.30;69.80;;;;;;10414101;28;20384;-56
2023/08/29 08:46:35;;;;;;;3.25;1.10;;;20.30;69.50;;;;;;10435680;28;20029;-56
2023/08/29 08:51:37;;;;;;;2.45;1.27;;;20.40;69.60;;;;;;10455097;28;20025;-56
2023/08/29 08:56:39;;;;;;;2.30;1.20;;;20.40;70.20;;;;;;10455369;28;20048;-57
2023/08/29 09:01:40;;;;;;;3.90;1.30;;;20.30;69.60;;;;;;10436725;28;20144;-56
2023/08/29 09:06:40;;;;;;;4.00;1.17;;;20.40;69.70;;;;;;10451200;28;20040;-56
2023/08/29 09:11:51;;;;;;;2.70;0.85;;;20.40;69.70;;;;;;10428451;28;20029;-57
2023/08/29 09:16:57;;;;;;;1.88;1.17;;;20.40;69.60;;;;;;10423081;28;20098;-56
2023/08/29 09:21:58;;;;;;;2.92;1.10;;;20.50;69.70;;;;;;10437184;28;20401;-56
2023/08/29 09:26:58;;;;;;;3.88;1.00;;;20.50;69.50;;;;;;10420828;28;20033;-57
2023/08/29 09:31:59;;;;;;;6.47;1.23;;;20.50;69.60;;;;;;10427308;28;20033;-56
2023/08/29 09:37:03;;;;;;;2.45;0.90;;;20.50;69.60;;;;;;10422287;28;20030;-57
2023/08/29 09:42:07;;;;;;;2.85;1.08;;;20.50;69.60;;;;;;10419502;28;20033;-56
2023/08/29 09:47:11;;;;;;;4.15;0.82;;;20.50;69.60;;;;;;10429863;28;20600;-56
2023/08/29 09:52:16;;;;;;;3.50;1.33;;;20.50;69.70;;;;;;10441734;28;20071;-56
2023/08/29 09:57:23;;;;;;;1.55;0.80;;;20.50;69.80;;;;;;10440020;28;20654;-56
2023/08/29 10:02:24;;;;;;;2.50;0.80;;;20.50;69.80;;;;;;10432906;28;20025;-56
2023/08/29 10:07:32;;;;;;;2.30;0.95;;;20.40;69.70;;;;;;10423587;28;20092;-56
2023/08/29 10:12:34;;;;;;;2.85;1.25;;;20.40;69.80;;;;;;10420809;28;20045;-57
2023/08/29 10:17:36;;;;;;;1.88;1.02;;;20.50;69.80;;;;;;10432116;28;20398;-56
2023/08/29 10:22:40;;;;;;;1.70;0.80;;;20.40;69.80;;;;;;10425751;28;20029;-56
2023/08/29 10:27:42;;;;;;;1.63;0.80;;;20.50;69.90;;;;;;10428052;28;20022;-56
2023/08/29 10:32:44;;;;;;;2.70;0.80;;;20.40;69.80;;;;;;10451330;28;20025;-56
2023/08/29 10:37:51;;;;;;;1.88;0.93;;;20.50;70.00;;;;;;10450649;28;20033;-56
2023/08/29 10:43:03;;;;;;;2.08;1.25;;;20.40;69.90;;;;;;10451641;28;20135;-56
2023/08/29 10:48:04;;;;;;;1.48;1.00;;;20.50;69.90;;;;;;10451846;28;20053;-57
2023/08/29 10:53:18;;;;;;;2.30;1.10;;;20.40;69.90;;;;;;10450996;28;20120;-56
2023/08/29 10:58:42;;;;;;;5.20;1.15;;;20.50;69.90;;;;;;10439136;28;20109;-57
2023/08/29 11:03:48;;;;;;;2.25;1.00;;;20.40;69.90;;;;;;10426431;28;20591;-56
2023/08/29 11:08:50;;;;;;;3.10;0.80;;;20.50;71.50;;;;;;10428761;28;20025;-57
2023/08/29 11:14:04;;;;;;;2.17;0.90;;;20.50;71.30;;;;;;10433137;28;20045;-57
2023/08/29 11:19:11;;;;;;;1.48;1.23;;;20.40;70.80;;;;;;10408717;28;20071;-58
2023/08/29 11:24:12;;;;;;;1.83;0.80;;;20.40;70.70;;;;;;10408096;28;20493;-57
2023/08/29 11:29:13;;;;;;;1.75;0.85;;;20.50;71.70;;;;;;10435816;28;20065;-57
2023/08/29 11:34:17;;;;;;;1.60;1.05;;;20.50;71.60;;;;;;10407102;28;20030;-57
2023/08/29 11:39:21;;;;;;;1.67;0.80;;;20.60;70.60;;;;;;10436048;28;20135;-57
2023/08/29 11:44:27;;;;;;;2.03;1.30;;;20.60;70.90;;;;;;10449129;28;20510;-57
2023/08/29 11:49:29;;;;;;;2.17;1.20;;;20.60;70.60;;;;;;10436557;28;20116;-56
2023/08/29 11:54:48;;;;;;;1.35;0.88;;;20.60;71.00;;;;;;10425762;28;20072;-56
2023/08/29 11:59:52;;;;;;;1.95;0.80;;;20.70;70.60;;;;;;10445406;28;20086;-57
2023/08/29 12:04:57;;;;;;;3.50;1.15;;;20.60;70.70;;;;;;10448473;28;20021;-56
2023/08/29 12:10:08;;;;;;;2.40;0.75;;;20.70;70.60;;;;;;10448478;28;20033;-57
2023/08/29 12:15:16;;;;;;;1.98;0.90;;;20.70;70.50;;;;;;10426177;28;20068;-57
2023/08/29 12:20:17;;;;;;;1.58;0.75;;;20.70;70.30;;;;;;10407338;28;20091;-55
2023/08/29 12:25:19;;;;;;;2.95;1.20;;;20.80;70.30;;;;;;10428588;28;20090;-55
2023/08/29 12:30:20;;;;;;;2.30;0.90;;;20.80;70.20;;;;;;10412191;28;20045;-56
2023/08/29 12:35:21;;;;;;;1.88;0.70;;;20.80;70.20;;;;;;10419825;28;20029;-58
2023/08/29 12:40:21;;;;;;;2.58;0.90;;;20.90;70.60;;;;;;10421776;28;20038;-56
2023/08/29 12:45:22;;;;;;;4.65;0.90;;;20.90;70.00;;;;;;10428786;28;20041;-56
2023/08/29 12:50:23;;;;;;;4.47;1.10;;;20.90;70.80;;;;;;10430269;28;20370;-56
2023/08/29 12:55:24;;;;;;;2.38;0.90;;;20.90;71.50;;;;;;10429928;28;20025;-55
2023/08/29 13:00:25;;;;;;;2.60;0.95;;;20.90;70.30;;;;;;10431206;28;20071;-55
2023/08/29 13:05:26;;;;;;;7.78;2.35;;;20.80;70.50;;;;;;10413506;28;20056;-60
2023/08/29 13:10:28;;;;;;;2.63;1.17;;;20.80;70.20;;;;;;10413340;28;20029;-60
2023/08/29 13:15:29;;;;;;;4.47;1.30;;;20.70;69.70;;;;;;10412971;28;20044;-60
2023/08/29 13:20:32;;;;;;;4.28;1.48;;;20.70;69.50;;;;;;10420391;28;20389;-60
2023/08/29 13:25:33;;;;;;;3.90;1.35;;;20.70;69.40;;;;;;10421011;28;20033;-60
2023/08/29 13:30:33;;;;;;;3.10;1.40;;;20.70;69.20;;;;;;10434032;28;20056;-60
2023/08/29 13:35:34;;;;;;;3.47;1.50;;;20.70;69.00;;;;;;10412143;28;20037;-58
2023/08/29 13:40:35;;;;;;;2.92;1.30;;;20.70;69.40;;;;;;10428285;28;20039;-56
2023/08/29 13:45:35;;;;;;;3.00;1.20;;;20.70;68.60;;;;;;10427599;28;20460;-57
2023/08/29 13:50:40;;;;;;;2.60;1.55;;;20.80;68.60;;;;;;10428740;28;20480;-57
2023/08/29 13:55:40;;;;;;;2.30;1.20;;;20.80;68.50;;;;;;10452508;28;20032;-56
2023/08/29 14:00:41;;;;;;;2.53;1.15;;;20.80;68.60;;;;;;10452043;28;20030;-56
2023/08/29 14:05:44;;;;;;;1.92;1.08;;;20.80;68.60;;;;;;10452272;28;20033;-57
2023/08/29 14:10:45;;;;;;;2.47;1.30;;;20.70;68.70;;;;;;10452396;28;20083;-57
2023/08/29 14:15:46;;;;;;;2.72;1.45;;;20.70;68.80;;;;;;10452109;28;20488;-57
2023/08/29 14:20:46;;;;;;;4.65;1.55;;;20.70;68.80;;;;;;10452015;28;20036;-57
2023/08/29 14:25:47;;;;;;;5.20;1.70;;;20.70;69.00;;;;;;10421439;28;20640;-60
2023/08/29 14:30:48;;;;;;;10.50;2.15;;;20.80;69.20;;;;;;10429130;28;20040;-59
2023/08/29 14:35:54;;;;;;;6.15;1.88;;;20.90;69.60;;;;;;10409939;28;20381;-59
2023/08/29 14:41:05;;;;;;;4.78;1.75;;;20.90;69.40;;;;;;10423030;28;20044;-59
2023/08/29 14:46:06;;;;;;;8.32;3.20;;;20.90;69.50;;;;;;10409213;28;20037;-57
2023/08/29 14:51:08;;;;;;;7.57;2.22;;;20.80;69.90;;;;;;10441314;28;20062;-58
2023/08/29 14:56:09;;;;;;;9.60;2.85;;;20.80;69.50;;;;;;10441404;28;20045;-57
2023/08/29 15:01:09;;;;;;;52.17;28.13;;;20.80;69.60;;;;;;10431484;28;20048;-57
2023/08/29 15:06:11;;;;;;;23.17;15.38;;;20.80;69.40;;;;;;10421963;28;20564;-57
2023/08/29 15:11:12;;;;;;;13.27;9.63;;;20.80;73.70;;;;;;10408887;28;20037;-56
2023/08/29 15:16:13;;;;;;;13.68;7.30;;;20.70;72.90;;;;;;10449595;28;20049;-57
2023/08/29 15:21:13;;;;;;;9.68;6.32;;;20.70;72.20;;;;;;10448878;28;20029;-56
2023/08/29 15:26:14;;;;;;;13.73;5.32;;;20.70;70.10;;;;;;10432737;28;20036;-56
2023/08/29 15:31:15;;;;;;;9.95;4.05;;;20.70;69.00;;;;;;10421540;28;20033;-57
2023/08/29 15:36:16;;;;;;;10.55;3.92;;;20.70;69.00;;;;;;10408167;28;20037;-58
2023/08/29 15:41:17;;;;;;;14.02;3.80;;;20.60;68.50;;;;;;10406614;28;20033;-57
2023/08/29 15:46:18;;;;;;;27.13;4.90;;;20.60;67.30;;;;;;10415721;28;20088;-56
2023/08/29 15:51:18;;;;;;;13.07;3.45;;;20.60;67.30;;;;;;10431415;28;20045;-55
2023/08/29 15:56:19;;;;;;;18.63;3.92;;;20.70;68.00;;;;;;10434779;28;20514;-56
2023/08/29 16:01:21;;;;;;;10.45;2.60;;;20.60;67.30;;;;;;10436832;28;20022;-54
2023/08/29 16:06:21;;;;;;;13.00;3.22;;;20.80;67.90;;;;;;10440102;28;20116;-56
2023/08/29 16:11:22;;;;;;;14.55;3.97;;;20.90;69.20;;;;;;10447071;28;20037;-56
2023/08/29 16:16:23;;;;;;;11.85;3.00;;;21.00;68.70;;;;;;10445055;28;20574;-54
2023/08/29 16:21:24;;;;;;;14.70;3.15;;;21.00;68.80;;;;;;10410028;28;20033;-56
2023/08/29 16:26:25;;;;;;;14.88;3.05;;;21.00;69.30;;;;;;10414261;28;20029;-54
2023/08/29 16:31:25;;;;;;;8.90;3.22;;;21.00;69.50;;;;;;10419167;28;20371;-54
2023/08/29 16:36:26;;;;;;;11.52;3.03;;;21.10;69.50;;;;;;10417605;28;20038;-55
2023/08/29 16:41:27;;;;;;;11.95;3.47;;;21.10;69.40;;;;;;10414234;28;20063;-54
2023/08/29 16:46:27;;;;;;;10.85;3.20;;;21.00;69.50;;;;;;10413961;28;20037;-56
2023/08/29 16:51:28;;;;;;;10.70;4.03;;;20.90;69.90;;;;;;10415387;28;20036;-56
2023/08/29 16:56:30;;;;;;;10.68;2.67;;;20.80;69.90;;;;;;10435421;28;20036;-55
2023/08/29 17:01:31;;;;;;;10.30;3.42;;;20.70;70.10;;;;;;10452162;28;20064;-56
2023/08/29 17:06:33;;;;;;;7.47;2.78;;;20.70;70.40;;;;;;10454948;28;20549;-55
2023/08/29 17:11:33;;;;;;;8.50;2.78;;;20.60;70.40;;;;;;10437894;28;20037;-55
2023/08/29 17:16:34;;;;;;;9.23;3.22;;;20.70;70.30;;;;;;10427381;28;20037;-56
2023/08/29 17:21:35;;;;;;;5.00;2.47;;;20.70;70.50;;;;;;10428268;28;20139;-56
2023/08/29 17:26:37;;;;;;;7.80;2.70;;;20.80;70.60;;;;;;10420075;28;20033;-56
2023/08/29 17:31:38;;;;;;;6.60;3.17;;;20.80;70.70;;;;;;10421796;28;20033;-56
2023/08/29 17:36:39;;;;;;;6.18;2.35;;;20.80;70.20;;;;;;10429335;28;20033;-56
2023/08/29 17:41:39;;;;;;;5.30;2.67;;;20.80;70.20;;;;;;10416028;28;20036;-56
2023/08/29 17:46:40;;;;;;;6.18;2.40;;;20.80;70.30;;;;;;10422089;28;20403;-56
2023/08/29 17:51:41;;;;;;;4.60;2.40;;;20.80;70.40;;;;;;10434368;28;20036;-56
2023/08/29 17:56:42;;;;;;;7.03;2.15;;;20.70;70.50;;;;;;10433735;28;20036;-56
2023/08/29 18:01:43;;;;;;;5.30;2.38;;;20.60;70.60;;;;;;10422652;28;20025;-56
2023/08/29 18:06:44;;;;;;;5.88;2.42;;;20.70;70.60;;;;;;10413705;28;20046;-56
2023/08/29 18:11:45;;;;;;;4.10;2.17;;;20.60;71.00;;;;;;10421408;28;20038;-56
2023/08/29 18:16:46;;;;;;;4.93;2.13;;;20.70;70.80;;;;;;10429481;28;20556;-56
2023/08/29 18:21:47;;;;;;;6.57;2.67;;;20.70;70.70;;;;;;10423070;28;20029;-55
2023/08/29 18:26:48;;;;;;;6.40;2.83;;;20.70;70.70;;;;;;10410911;28;20037;-56
2023/08/29 18:31:49;;;;;;;4.97;2.35;;;20.70;70.60;;;;;;10419064;28;20106;-56
2023/08/29 18:36:50;;;;;;;4.93;2.53;;;20.70;70.60;;;;;;10427092;28;20044;-56
2023/08/29 18:41:50;;;;;;;4.70;2.10;;;20.80;70.90;;;;;;10427141;28;20040;-55
2023/08/29 18:46:51;;;;;;;4.22;2.25;;;20.90;70.60;;;;;;10423520;28;20029;-54
2023/08/29 18:51:52;;;;;;;5.65;2.00;;;20.90;70.70;;;;;;10431181;28;20372;-55
2023/08/29 18:56:53;;;;;;;3.97;2.00;;;20.90;70.70;;;;;;10427654;28;20032;-56
2023/08/29 19:01:53;;;;;;;5.05;2.30;;;20.90;70.70;;;;;;10422606;28;20036;-56
2023/08/29 19:06:54;;;;;;;8.10;2.30;;;20.90;70.80;;;;;;10425525;28;20507;-56
2023/08/29 19:11:55;;;;;;;5.03;2.67;;;20.90;70.80;;;;;;10416836;28;20075;-55
2023/08/29 19:16:56;;;;;;;3.97;2.17;;;20.90;70.90;;;;;;10414622;28;20121;-55
2023/08/29 19:21:57;;;;;;;4.75;2.08;;;20.90;70.90;;;;;;10423099;28;20025;-55
2023/08/29 19:26:59;;;;;;;4.97;2.83;;;20.80;71.20;;;;;;10439628;28;20037;-55
2023/08/29 19:32:00;;;;;;;3.80;2.22;;;20.70;71.30;;;;;;10417258;28;20439;-56
2023/08/29 19:37:01;;;;;;;5.15;2.13;;;20.60;71.30;;;;;;10409107;28;20037;-56
2023/08/29 19:42:03;;;;;;;3.30;2.05;;;20.60;71.30;;;;;;10408658;28;20036;-55
2023/08/29 19:47:04;;;;;;;3.35;2.67;;;20.60;71.40;;;;;;10424902;28;20021;-55
2023/08/29 19:52:06;;;;;;;4.13;2.13;;;20.60;71.30;;;;;;10412950;28;20435;-55
2023/08/29 19:57:06;;;;;;;5.63;2.75;;;20.60;71.20;;;;;;10409861;28;20108;-54
2023/08/29 20:02:09;;;;;;;7.43;2.67;;;20.50;71.10;;;;;;10414000;28;20033;-55
2023/08/29 20:07:10;;;;;;;3.45;2.08;;;20.50;71.20;;;;;;10413706;28;20034;-55
2023/08/29 20:12:13;;;;;;;6.22;2.92;;;20.50;71.10;;;;;;10413421;28;20048;-56
2023/08/29 20:17:13;;;;;;;3.03;1.95;;;20.50;71.20;;;;;;10413391;28;20199;-54
2023/08/29 20:22:14;;;;;;;5.50;2.38;;;20.50;71.00;;;;;;10413489;28;20030;-56
2023/08/29 20:27:16;;;;;;;2.92;2.03;;;20.40;71.00;;;;;;10435416;28;20029;-55
2023/08/29 20:32:17;;;;;;;2.65;1.80;;;20.40;71.10;;;;;;10418998;28;20029;-55
2023/08/29 20:37:22;;;;;;;4.22;1.90;;;20.40;71.00;;;;;;10413406;28;20492;-54
2023/08/29 20:42:23;;;;;;;4.00;1.65;;;20.40;70.90;;;;;;10411000;28;20035;-54
2023/08/29 20:47:24;;;;;;;2.83;1.90;;;20.40;71.10;;;;;;10440637;28;20468;-55
2023/08/29 20:52:26;;;;;;;4.32;2.03;;;20.40;70.90;;;;;;10453008;28;20032;-55
2023/08/29 20:57:27;;;;;;;4.20;2.38;;;20.40;70.90;;;;;;10451666;28;20039;-55
2023/08/29 21:02:27;;;;;;;2.80;1.98;;;20.40;70.90;;;;;;10453136;28;20036;-55
2023/08/29 21:07:28;;;;;;;3.78;1.45;;;20.30;70.80;;;;;;10453070;28;20480;-55
2023/08/29 21:12:29;;;;;;;1.98;1.40;;;20.30;70.80;;;;;;10452481;28;20052;-55
2023/08/29 21:17:31;;;;;;;2.88;1.65;;;20.30;70.70;;;;;;10452413;28;20032;-55
2023/08/29 21:22:32;;;;;;;2.20;1.65;;;20.40;70.80;;;;;;10451024;28;20935;-54
2023/08/29 21:27:33;;;;;;;2.72;1.55;;;20.30;70.70;;;;;;10414815;28;20037;-55
2023/08/29 21:32:34;;;;;;;2.20;1.67;;;20.30;70.70;;;;;;10413983;28;20603;-55
2023/08/29 21:37:34;;;;;;;2.03;1.58;;;20.30;70.50;;;;;;10409575;28;20037;-57
2023/08/29 21:42:37;;;;;;;3.10;1.92;;;20.30;70.40;;;;;;10409799;28;20025;-58
2023/08/29 21:47:38;;;;;;;3.03;1.75;;;20.30;70.20;;;;;;10410029;28;20037;-58
2023/08/29 21:52:39;;;;;;;1.60;1.40;;;20.30;70.30;;;;;;10409656;28;20396;-56
2023/08/29 21:57:39;;;;;;;2.30;1.40;;;20.30;70.10;;;;;;10409937;28;20468;-58
2023/08/29 22:02:40;;;;;;;2.28;1.65;;;20.30;70.10;;;;;;10409384;28;20033;-58
2023/08/29 22:07:41;;;;;;;2.45;1.65;;;20.30;70.10;;;;;;10409027;28;20044;-59
2023/08/29 22:12:42;;;;;;;3.83;2.03;;;20.20;70.00;;;;;;10408834;28;20056;-58
2023/08/29 22:17:44;;;;;;;3.00;1.45;;;20.20;69.90;;;;;;10408190;28;20245;-57
2023/08/29 22:22:45;;;;;;;2.47;1.35;;;20.20;69.90;;;;;;10408234;28;20026;-58
2023/08/29 22:27:45;;;;;;;3.08;2.03;;;20.20;69.80;;;;;;10437870;28;20059;-58
2023/08/29 22:32:51;;;;;;;4.50;1.88;;;20.20;69.70;;;;;;10407717;28;20026;-58
2023/08/29 22:37:52;;;;;;;2.28;1.55;;;20.20;69.70;;;;;;10408046;28;20037;-58
2023/08/29 22:42:53;;;;;;;3.55;1.70;;;20.20;69.70;;;;;;10406221;28;20105;-58
2023/08/29 22:47:53;;;;;;;2.83;1.83;;;20.20;69.50;;;;;;10407722;28;20037;-58
2023/08/29 22:52:54;;;;;;;1.88;1.23;;;20.10;69.40;;;;;;10407422;28;20037;-57
2023/08/29 22:57:55;;;;;;;2.58;1.65;;;20.10;69.40;;;;;;10407230;28;20111;-57
2023/08/29 23:02:56;;;;;;;3.22;1.70;;;20.10;69.30;;;;;;10406701;28;20373;-56
2023/08/29 23:07:58;;;;;;;3.92;1.90;;;20.10;69.30;;;;;;10407379;28;20087;-57
2023/08/29 23:12:59;;;;;;;3.00;1.40;;;20.10;69.20;;;;;;10406288;28;20135;-55
2023/08/29 23:18:00;;;;;;;2.53;1.83;;;20.10;69.20;;;;;;10407501;28;20063;-58
2023/08/29 23:23:01;;;;;;;3.53;1.95;;;20.10;69.30;;;;;;10406095;28;20025;-58
2023/08/29 23:28:02;;;;;;;2.40;1.88;;;20.10;69.30;;;;;;10435434;28;20029;-59
2023/08/29 23:33:03;;;;;;;2.40;1.67;;;20.10;69.20;;;;;;10404803;28;20030;-58
2023/08/29 23:38:04;;;;;;;2.33;1.50;;;20.10;69.30;;;;;;10411976;28;20423;-57
2023/08/29 23:43:05;;;;;;;2.40;1.65;;;20.10;69.30;;;;;;10406137;28;20034;-58
2023/08/29 23:48:06;;;;;;;3.13;1.98;;;20.10;69.90;;;;;;10405980;28;20124;-58
2023/08/29 23:53:06;;;;;;;2.58;1.90;;;20.10;69.40;;;;;;10405238;28;20330;-57
2023/08/29 23:58:07;;;;;;;3.28;1.77;;;20.10;69.40;;;;;;10405476;28;20432;-55
